createdAt,value
2022-11-13T00:01:38.751Z,9.43
2022-11-13T00:04:24.092Z,9.60
2022-11-13T00:07:09.166Z,9.90
2022-11-13T00:09:54.547Z,9.70
2022-11-13T00:12:39.638Z,9.60
2022-11-13T00:15:25.108Z,8.98
2022-11-13T00:18:10.547Z,9.02
2022-11-13T00:20:57.416Z,7.95
2022-11-13T00:23:43.012Z,8.48
2022-11-13T00:26:29.906Z,8.27
2022-11-13T00:29:15.044Z,8.45
2022-11-13T00:32:00.410Z,8.73
2022-11-13T00:34:48.267Z,8.82
2022-11-13T00:37:34.152Z,10.02
2022-11-13T00:40:19.178Z,9.02
2022-11-13T00:43:04.407Z,8.82
2022-11-13T00:45:49.810Z,8.55
2022-11-13T00:48:35.458Z,9.35
2022-11-13T00:51:20.748Z,9.68
2022-11-13T00:54:06.266Z,8.95
2022-11-13T00:56:51.929Z,6.85
2022-11-13T00:59:37.268Z,6.60
2022-11-13T01:02:22.729Z,7.32
2022-11-13T01:05:08.626Z,7.95
2022-11-13T01:07:53.750Z,7.35
2022-11-13T01:10:42.290Z,7.15
2022-11-13T01:13:27.544Z,7.35
2022-11-13T01:16:13.723Z,7.00
2022-11-13T01:18:59.007Z,6.43
2022-11-13T01:21:44.185Z,7.10
2022-11-13T01:24:29.317Z,6.65
2022-11-13T01:27:15.890Z,6.05
2022-11-13T01:30:01.129Z,5.80
2022-11-13T01:32:46.555Z,6.38
2022-11-13T01:35:31.760Z,5.63
2022-11-13T01:38:17.492Z,5.82
2022-11-13T01:41:03.366Z,5.95
2022-11-13T01:43:48.522Z,5.68
2022-11-13T01:46:35.723Z,6.40
2022-11-13T01:49:39.881Z,5.47
2022-11-13T01:52:31.870Z,6.32
2022-11-13T01:55:18.524Z,6.13
2022-11-13T01:58:05.111Z,5.72
2022-11-13T02:00:50.527Z,6.07
2022-11-13T02:03:36.204Z,5.20
2022-11-13T02:06:22.022Z,6.28
2022-11-13T02:09:08.351Z,5.82
2022-11-13T02:11:53.823Z,6.38
2022-11-13T02:14:42.267Z,6.05
2022-11-13T02:17:42.325Z,5.88
2022-11-13T02:20:37.829Z,6.45
2022-11-13T02:23:46.837Z,5.78
2022-11-13T02:26:32.963Z,5.75
2022-11-13T02:29:18.070Z,6.07
2022-11-13T02:32:03.258Z,6.47
2022-11-13T02:34:48.599Z,5.57
2022-11-13T02:37:33.768Z,6.25
2022-11-13T02:40:19.423Z,5.80
2022-11-13T02:43:04.986Z,5.40
2022-11-13T02:45:50.118Z,6.05
2022-11-13T02:48:36.102Z,6.13
2022-11-13T02:51:21.334Z,5.97
2022-11-13T02:54:06.824Z,6.60
2022-11-13T02:56:52.233Z,6.80
2022-11-13T02:59:37.407Z,6.90
2022-11-13T03:02:22.826Z,6.07
2022-11-13T03:05:13.081Z,6.20
2022-11-13T03:07:58.528Z,6.90
2022-11-13T03:10:43.744Z,7.28
2022-11-13T03:13:28.947Z,7.30
2022-11-13T03:16:16.190Z,7.22
2022-11-13T03:19:01.343Z,7.55
2022-11-13T03:21:46.470Z,6.68
2022-11-13T03:24:31.719Z,6.78
2022-11-13T03:27:16.641Z,6.38
2022-11-13T03:30:01.948Z,7.03
2022-11-13T03:32:46.917Z,6.80
2022-11-13T03:35:38.048Z,6.65
2022-11-13T03:38:27.250Z,6.68
2022-11-13T03:41:14.802Z,6.72
2022-11-13T03:44:00.200Z,7.20
2022-11-13T03:46:45.473Z,8.00
2022-11-13T03:49:30.595Z,7.25
2022-11-13T03:52:15.826Z,6.15
2022-11-13T03:55:00.956Z,6.90
2022-11-13T03:57:47.232Z,7.00
2022-11-13T04:00:32.452Z,7.15
2022-11-13T04:03:17.428Z,7.63
2022-11-13T04:06:02.494Z,7.63
2022-11-13T04:08:47.813Z,6.88
2022-11-13T04:11:33.140Z,7.53
2022-11-13T04:14:18.472Z,6.90
2022-11-13T04:17:03.754Z,7.80
2022-11-13T04:19:48.783Z,7.40
2022-11-13T04:22:34.029Z,6.68
2022-11-13T04:25:19.157Z,7.38
2022-11-13T04:28:04.235Z,7.18
2022-11-13T04:30:49.630Z,6.72
2022-11-13T04:33:35.162Z,6.88
2022-11-13T04:36:20.663Z,7.07
2022-11-13T04:39:06.219Z,7.13
2022-11-13T04:42:10.203Z,7.03
2022-11-13T04:44:55.638Z,6.32
2022-11-13T04:47:40.825Z,6.72
2022-11-13T04:50:25.964Z,6.78
2022-11-13T04:53:11.435Z,6.40
2022-11-13T04:55:56.302Z,6.32
2022-11-13T04:58:41.615Z,7.28
2022-11-13T05:01:26.877Z,6.68
2022-11-13T05:04:13.589Z,5.90
2022-11-13T05:06:58.994Z,6.28
2022-11-13T05:09:44.055Z,6.93
2022-11-13T05:12:29.366Z,6.18
2022-11-13T05:15:14.696Z,6.47
2022-11-13T05:17:59.974Z,7.15
2022-11-13T05:20:45.106Z,6.60
2022-11-13T05:23:30.399Z,7.25
2022-11-13T05:26:15.424Z,6.20
2022-11-13T05:29:00.871Z,5.75
2022-11-13T05:31:46.582Z,6.72
2022-11-13T05:34:31.607Z,7.03
2022-11-13T05:37:17.225Z,6.85
2022-11-13T05:40:02.470Z,6.10
2022-11-13T05:42:47.948Z,6.20
2022-11-13T05:45:33.004Z,5.85
2022-11-13T05:48:18.331Z,6.85
2022-11-13T05:51:05.456Z,7.28
2022-11-13T05:53:51.023Z,6.32
2022-11-13T05:56:37.021Z,7.38
2022-11-13T05:59:22.295Z,6.97
2022-11-13T06:02:07.726Z,7.18
2022-11-13T06:04:56.503Z,6.63
2022-11-13T06:07:41.964Z,7.55
2022-11-13T06:10:27.368Z,6.30
2022-11-13T06:13:12.761Z,5.72
2022-11-13T06:16:02.751Z,6.25
2022-11-13T06:18:48.847Z,5.68
2022-11-13T06:21:35.631Z,5.55
2022-11-13T06:24:21.023Z,5.90
2022-11-13T06:27:06.480Z,5.75
2022-11-13T06:29:51.757Z,5.53
2022-11-13T06:32:36.933Z,5.88
2022-11-13T06:35:22.153Z,5.88
2022-11-13T06:38:07.190Z,6.10
2022-11-13T06:40:52.162Z,6.18
2022-11-13T06:43:37.195Z,5.60
2022-11-13T06:46:24.762Z,5.43
2022-11-13T06:49:09.788Z,5.60
2022-11-13T06:51:54.988Z,5.38
2022-11-13T06:54:39.932Z,6.25
2022-11-13T06:57:25.055Z,5.55
2022-11-13T07:00:10.844Z,5.07
2022-11-13T07:02:56.257Z,6.00
2022-11-13T07:05:41.406Z,5.50
2022-11-13T07:08:26.734Z,6.25
2022-11-13T07:11:15.690Z,6.78
2022-11-13T07:14:00.887Z,6.30
2022-11-13T07:17:07.895Z,5.55
2022-11-13T07:19:51.751Z,6.50
2022-11-13T07:22:36.828Z,6.28
2022-11-13T07:25:21.924Z,6.00
2022-11-13T07:28:07.107Z,6.13
2022-11-13T07:30:52.251Z,6.22
2022-11-13T07:33:37.446Z,5.72
2022-11-13T07:36:22.816Z,6.07
2022-11-13T07:39:08.173Z,6.03
2022-11-13T07:41:56.823Z,5.80
2022-11-13T07:44:54.159Z,5.80
2022-11-13T07:47:40.385Z,5.95
2022-11-13T07:50:27.717Z,6.22
2022-11-13T07:53:14.037Z,5.72
2022-11-13T07:56:03.690Z,5.95
2022-11-13T07:58:49.582Z,5.93
2022-11-13T08:01:34.783Z,5.45
2022-11-13T08:04:19.766Z,6.78
2022-11-13T08:07:05.571Z,6.88
2022-11-13T08:09:51.297Z,6.65
2022-11-13T08:12:36.575Z,5.55
2022-11-13T08:15:22.208Z,5.47
2022-11-13T08:18:10.584Z,6.25
2022-11-13T08:20:55.955Z,5.90
2022-11-13T08:23:42.031Z,5.60
2022-11-13T08:26:27.037Z,5.60
2022-11-13T08:29:12.395Z,5.07
2022-11-13T08:31:57.340Z,6.00
2022-11-13T08:34:43.684Z,6.18
2022-11-13T08:37:31.726Z,5.38
2022-11-13T08:40:17.179Z,6.63
2022-11-13T08:43:04.271Z,5.85
2022-11-13T08:45:49.328Z,6.05
2022-11-13T08:48:34.706Z,6.80
2022-11-13T08:51:20.536Z,7.25
2022-11-13T08:54:08.267Z,6.57
2022-11-13T08:56:56.675Z,6.10
2022-11-13T08:59:43.983Z,7.07
2022-11-13T09:02:29.361Z,6.82
2022-11-13T09:05:17.486Z,6.47
2022-11-13T09:08:03.641Z,7.22
2022-11-13T09:10:49.132Z,7.85
2022-11-13T09:13:37.542Z,8.57
2022-11-13T09:16:26.555Z,8.00
2022-11-13T09:19:11.829Z,7.22
2022-11-13T09:21:56.943Z,7.03
2022-11-13T09:24:42.166Z,6.40
2022-11-13T09:27:27.354Z,7.13
2022-11-13T09:30:13.166Z,6.75
2022-11-13T09:32:59.754Z,6.78
2022-11-13T09:35:45.810Z,6.95
2022-11-13T09:38:32.278Z,7.47
2022-11-13T09:41:27.173Z,6.75
2022-11-13T09:44:39.010Z,7.05
2022-11-13T09:47:45.583Z,7.43
2022-11-13T09:50:31.700Z,7.72
2022-11-13T09:53:17.846Z,7.65
2022-11-13T09:56:22.002Z,6.68
2022-11-13T09:59:35.141Z,6.45
2022-11-13T10:02:26.216Z,7.97
2022-11-13T10:05:42.323Z,7.40
2022-11-13T10:08:46.560Z,7.80
2022-11-13T10:11:42.410Z,7.85
2022-11-13T10:14:48.633Z,7.28
2022-11-13T10:17:38.720Z,7.90
2022-11-13T10:20:24.668Z,7.85
2022-11-13T10:23:17.184Z,7.75
2022-11-13T10:26:18.405Z,8.60
2022-11-13T10:29:15.827Z,9.15
2022-11-13T10:32:15.935Z,8.32
2022-11-13T10:35:13.085Z,8.13
2022-11-13T10:38:08.094Z,8.07
2022-11-13T10:41:04.594Z,8.75
2022-11-13T10:44:09.519Z,8.15
2022-11-13T10:47:56.958Z,7.95
2022-11-13T10:50:31.919Z,8.02
2022-11-13T10:53:18.111Z,7.68
2022-11-13T10:56:14.512Z,8.70
2022-11-13T10:59:14.483Z,7.65
2022-11-13T11:02:21.927Z,7.90
2022-11-13T11:05:20.061Z,8.27
2022-11-13T11:08:09.598Z,8.18
2022-11-13T11:11:16.678Z,7.88
2022-11-13T11:14:15.983Z,8.38
2022-11-13T11:17:02.262Z,7.65
2022-11-13T11:19:53.073Z,8.95
2022-11-13T11:22:38.977Z,8.70
2022-11-13T11:25:50.728Z,9.00
2022-11-13T11:28:48.214Z,8.82
2022-11-13T11:31:50.328Z,8.25
2022-11-13T11:34:44.706Z,8.27
2022-11-13T11:37:41.357Z,8.18
2022-11-13T11:40:31.060Z,8.18
2022-11-13T11:43:24.133Z,8.05
2022-11-13T11:46:13.672Z,9.55
2022-11-13T11:49:00.982Z,8.60
2022-11-13T11:52:15.551Z,9.55
2022-11-13T11:55:33.133Z,10.43
2022-11-13T11:58:42.788Z,8.57
2022-11-13T12:01:41.829Z,9.25
2022-11-13T12:04:48.081Z,9.77
2022-11-13T12:07:36.700Z,10.15
2022-11-13T12:10:35.407Z,9.82
2022-11-13T12:13:37.291Z,10.30
2022-11-13T12:16:32.287Z,9.45
2022-11-13T12:19:37.328Z,9.50
2022-11-13T12:22:36.386Z,9.43
2022-11-13T12:25:42.023Z,8.55
2022-11-13T12:28:31.505Z,8.40
2022-11-13T12:31:51.863Z,9.10
2022-11-13T12:34:44.947Z,7.72
2022-11-13T12:37:58.401Z,8.30
2022-11-13T12:41:01.697Z,8.27
2022-11-13T12:44:00.606Z,7.72
2022-11-13T12:46:46.138Z,6.82
2022-11-13T12:49:36.197Z,7.25
2022-11-13T12:52:24.210Z,11.30
2022-11-13T12:55:34.858Z,8.32
2022-11-13T12:58:20.832Z,8.68
2022-11-13T13:01:12.101Z,7.97
2022-11-13T13:04:06.758Z,8.63
2022-11-13T13:07:14.867Z,8.35
2022-11-13T13:10:37.891Z,8.18
2022-11-13T13:13:49.284Z,7.35
2022-11-13T13:16:34.726Z,8.10
2022-11-13T13:19:28.810Z,7.50
2022-11-13T13:22:32.264Z,7.15
2022-11-13T13:25:27.039Z,7.32
2022-11-13T13:28:21.224Z,7.40
2022-11-13T13:31:12.553Z,7.55
2022-11-13T13:33:57.474Z,7.22
2022-11-13T13:36:50.315Z,7.68
2022-11-13T13:39:41.448Z,7.32
2022-11-13T13:42:50.097Z,7.50
2022-11-13T13:46:06.362Z,7.30
2022-11-13T13:48:55.726Z,7.07
2022-11-13T13:51:43.840Z,6.88
2022-11-13T13:54:30.762Z,6.45
2022-11-13T13:57:16.623Z,6.90
2022-11-13T14:00:01.958Z,7.30
2022-11-13T14:02:54.921Z,6.15
2022-11-13T14:05:40.068Z,7.00
2022-11-13T14:08:27.004Z,6.80
2022-11-13T14:11:20.409Z,7.57
2022-11-13T14:14:10.752Z,6.68
2022-11-13T14:16:58.551Z,7.15
2022-11-13T14:19:49.755Z,7.65
2022-11-13T14:22:35.998Z,7.55
2022-11-13T14:25:24.950Z,7.38
2022-11-13T14:28:18.543Z,7.00
2022-11-13T14:31:04.516Z,7.55
2022-11-13T14:33:50.354Z,7.70
2022-11-13T14:36:39.531Z,7.90
2022-11-13T14:39:28.719Z,7.00
2022-11-13T14:42:17.595Z,7.47
2022-11-13T14:45:26.346Z,7.47
2022-11-13T14:48:22.129Z,7.45
2022-11-13T14:51:24.706Z,6.75
2022-11-13T14:57:49.280Z,7.13
2022-11-13T15:00:36.376Z,7.03
2022-11-13T15:03:21.660Z,7.18
2022-11-13T15:06:19.262Z,6.93
2022-11-13T15:09:06.558Z,6.78
2022-11-13T15:11:52.144Z,6.55
2022-11-13T15:14:39.415Z,7.00
2022-11-13T15:20:15.554Z,6.65
2022-11-13T15:23:01.161Z,6.70
2022-11-13T15:25:46.346Z,7.22
2022-11-13T15:28:31.547Z,6.40
2022-11-13T15:31:40.878Z,8.05
2022-11-13T15:34:26.030Z,7.35
2022-11-13T15:37:12.838Z,7.00
2022-11-13T15:39:58.058Z,6.55
2022-11-13T15:42:43.967Z,6.95
2022-11-13T15:45:29.095Z,6.78
2022-11-13T15:48:14.248Z,7.10
2022-11-13T15:50:59.440Z,6.43
2022-11-13T15:53:48.216Z,6.32
2022-11-13T15:56:33.695Z,6.68
2022-11-13T15:59:18.879Z,6.72
2022-11-13T16:02:04.503Z,6.88
2022-11-13T16:04:56.446Z,6.65
2022-11-13T16:07:42.723Z,7.35
2022-11-13T16:10:27.728Z,7.90
2022-11-13T16:13:13.066Z,7.05
2022-11-13T16:15:59.444Z,7.72
2022-11-13T16:18:44.935Z,7.60
2022-11-13T16:21:30.656Z,7.28
2022-11-13T16:24:16.555Z,7.85
2022-11-13T16:27:04.915Z,7.75
2022-11-13T16:29:50.286Z,7.65
2022-11-13T16:32:35.759Z,7.63
2022-11-13T16:35:21.376Z,9.38
2022-11-13T16:38:13.573Z,9.02
2022-11-13T16:40:58.604Z,10.32
2022-11-13T16:43:44.753Z,9.80
2022-11-13T16:46:32.188Z,11.18
2022-11-13T16:52:05.003Z,10.70
2022-11-13T16:54:51.493Z,9.88
2022-11-13T16:57:36.745Z,8.63
2022-11-13T17:00:25.364Z,9.88
2022-11-13T17:03:11.199Z,9.23
2022-11-13T17:05:57.102Z,9.27
2022-11-13T17:08:42.383Z,9.32
2022-11-13T17:11:29.431Z,8.90
2022-11-13T17:14:14.970Z,10.05
2022-11-13T17:17:00.153Z,9.70
2022-11-13T17:19:46.017Z,10.55
2022-11-13T17:22:31.790Z,9.50
2022-11-13T17:25:17.923Z,10.20
2022-11-13T17:28:03.285Z,9.50
2022-11-13T17:30:48.938Z,10.50
2022-11-13T17:33:34.492Z,10.77
2022-11-13T17:36:20.982Z,10.82
2022-11-13T17:39:06.384Z,10.18
2022-11-13T17:41:51.532Z,10.57
2022-11-13T17:44:36.546Z,10.15
2022-11-13T17:47:22.103Z,8.98
2022-11-13T17:50:08.084Z,10.45
2022-11-13T17:52:53.522Z,12.73
2022-11-13T17:55:38.639Z,11.60
2022-11-13T17:58:25.051Z,9.95
2022-11-13T18:01:29.604Z,9.88
2022-11-13T18:04:14.808Z,9.73
2022-11-13T18:07:00.338Z,11.38
2022-11-13T18:09:45.578Z,11.02
2022-11-13T18:12:30.825Z,11.15
2022-11-13T18:15:16.748Z,10.93
2022-11-13T18:18:02.301Z,11.55
2022-11-13T18:20:47.456Z,10.18
2022-11-13T18:23:32.412Z,9.65
2022-11-13T18:26:18.942Z,10.05
2022-11-13T18:29:04.484Z,9.73
2022-11-13T18:31:49.580Z,10.32
2022-11-13T18:34:34.638Z,9.73
2022-11-13T18:37:19.978Z,10.23
2022-11-13T18:40:06.597Z,8.60
2022-11-13T18:42:51.652Z,9.65
2022-11-13T18:45:36.992Z,9.90
2022-11-13T18:48:22.249Z,10.18
2022-11-13T18:51:11.227Z,9.25
2022-11-13T18:53:57.209Z,9.43
2022-11-13T18:56:42.510Z,10.45
2022-11-13T18:59:27.997Z,10.30
2022-11-13T19:02:13.613Z,9.73
2022-11-13T19:04:58.822Z,9.75
2022-11-13T19:07:43.901Z,9.30
2022-11-13T19:10:29.201Z,9.48
2022-11-13T19:13:14.484Z,9.10
2022-11-13T19:16:07.861Z,9.57
2022-11-13T19:18:58.195Z,10.07
2022-11-13T19:21:44.262Z,9.40
2022-11-13T19:24:29.703Z,9.18
2022-11-13T19:27:14.630Z,9.95
2022-11-13T19:29:59.851Z,9.32
2022-11-13T19:32:45.172Z,9.05
2022-11-13T19:35:30.259Z,8.88
2022-11-13T19:38:15.630Z,9.25
2022-11-13T19:41:00.726Z,9.25
2022-11-13T19:43:46.458Z,10.02
2022-11-13T19:46:33.907Z,9.85
2022-11-13T19:49:19.542Z,9.27
2022-11-13T19:52:04.671Z,9.63
2022-11-13T19:54:50.035Z,9.55
2022-11-13T19:57:35.046Z,10.07
2022-11-13T20:00:20.435Z,9.25
2022-11-13T20:03:07.841Z,10.95
2022-11-13T20:05:55.212Z,9.15
2022-11-13T20:08:40.548Z,9.52
2022-11-13T20:11:26.095Z,9.48
2022-11-13T20:14:12.340Z,10.65
2022-11-13T20:16:57.429Z,10.23
2022-11-13T20:19:42.603Z,10.30
2022-11-13T20:22:27.691Z,11.02
2022-11-13T20:25:12.952Z,10.20
2022-11-13T20:27:58.138Z,10.77
2022-11-13T20:30:43.725Z,9.38
2022-11-13T20:33:31.587Z,9.93
2022-11-13T20:36:17.278Z,9.40
2022-11-13T20:39:05.584Z,8.95
2022-11-13T20:41:54.322Z,9.98
2022-11-13T20:44:39.543Z,9.63
2022-11-13T20:47:24.923Z,9.95
2022-11-13T20:50:10.219Z,9.52
2022-11-13T20:52:55.630Z,9.30
2022-11-13T20:55:40.822Z,10.25
2022-11-13T20:58:26.288Z,10.20
2022-11-13T21:01:19.789Z,10.45
2022-11-13T21:04:05.125Z,10.20
2022-11-13T21:06:50.569Z,11.55
2022-11-13T21:09:35.772Z,11.07
2022-11-13T21:12:20.981Z,10.60
2022-11-13T21:15:14.983Z,10.93
2022-11-13T21:18:00.280Z,10.63
2022-11-13T21:20:45.906Z,10.30
2022-11-13T21:23:31.285Z,11.07
2022-11-13T21:26:16.958Z,11.15
2022-11-13T21:29:02.096Z,11.05
2022-11-13T21:31:47.298Z,11.15
2022-11-13T21:34:32.742Z,10.85
2022-11-13T21:37:17.787Z,11.55
2022-11-13T21:40:03.730Z,11.05
2022-11-13T21:42:48.845Z,11.73
2022-11-13T21:45:34.567Z,10.88
2022-11-13T21:48:19.679Z,11.35
2022-11-13T21:51:04.831Z,11.10
2022-11-13T21:53:50.366Z,11.55
2022-11-13T21:56:37.457Z,10.88
2022-11-13T21:59:22.603Z,10.68
2022-11-13T22:02:10.522Z,11.05
2022-11-13T22:04:55.732Z,11.23
2022-11-13T22:07:41.247Z,10.85
2022-11-13T22:10:26.213Z,12.25
2022-11-13T22:13:11.493Z,11.18
2022-11-13T22:15:56.973Z,10.23
2022-11-13T22:18:41.946Z,9.90
2022-11-13T22:21:28.501Z,10.73
2022-11-13T22:24:14.475Z,11.57
2022-11-13T22:26:59.835Z,12.02
2022-11-13T22:29:45.098Z,10.70
2022-11-13T22:32:30.660Z,11.57
2022-11-13T22:35:16.155Z,11.45
2022-11-13T22:38:02.225Z,11.27
2022-11-13T22:40:47.533Z,11.70
2022-11-13T22:43:34.655Z,11.82
2022-11-13T22:46:22.029Z,11.40
2022-11-13T22:49:07.290Z,11.70
2022-11-13T22:51:52.864Z,12.13
2022-11-13T22:54:37.868Z,11.02
2022-11-13T22:57:24.129Z,11.00
2022-11-13T23:00:10.798Z,11.98
2022-11-13T23:02:55.685Z,11.93
2022-11-13T23:05:40.836Z,10.80
2022-11-13T23:08:26.171Z,10.88
2022-11-13T23:11:13.852Z,11.05
2022-11-13T23:14:00.842Z,10.30
2022-11-13T23:16:45.782Z,10.85
2022-11-13T23:19:31.182Z,10.15
2022-11-13T23:22:16.410Z,9.95
2022-11-13T23:25:02.223Z,10.75
2022-11-13T23:27:47.686Z,10.40
2022-11-13T23:30:33.046Z,9.73
2022-11-13T23:33:18.526Z,9.95
2022-11-13T23:36:05.371Z,10.00
2022-11-13T23:38:50.722Z,9.45
2022-11-13T23:41:36.099Z,9.65
2022-11-13T23:44:21.039Z,9.90
2022-11-13T23:47:06.462Z,8.65
2022-11-13T23:49:51.551Z,8.50
2022-11-13T23:52:36.578Z,10.35
2022-11-13T23:55:22.506Z,8.88
2022-11-13T23:58:11.622Z,9.02
